Airport View

Enter AWOS ICAO identifier for current METAR.

ex. KFNL

KBVU 170915Z AUTO 03013KT 10SM CLR 19/M05 A3014 RMK AO2

17 Nov 2019 09:23

Frequency: 118.475

Phone: 702-293-1532

Other Area AWOS: KHND - KLAS - KLSV - KVGT

TAF KHND 170527Z 1706/1806 16005KT P6SM SKC FM171800 02007KT P6SM SCT250 FM180200 16006KT P6SM SCT250